ACA1550 CYHZ-CYYT
Flight info
| Callsign | ACA1550 |
|---|---|
| Flight time | 1h 12m |
| Altitude | 39000 |
| Route | IGTAS DCT NOTOP DCT SILRO DCT TIGOR TIGOR5 |
| Aircraft | A20N/M-SDE2E3FGHIRWXY/LB1 |
Departure
| Time | 2026-04-22 18:51 |
|---|---|
| Airport | Halifax / Stanfield International Airport (CYHZ) |
Arrival
| Time | 2026-04-22 20:04 |
|---|---|
| Airport | St. John's International Airport (CYYT) |
| Time | Latitude | Longitude | Altitude | Speed | Heading |
|---|---|---|---|---|---|
| 2026-04-22 18:29 | 44.88678 | -63.51382 | 455 ft | 0 kts | 258° |
| 2026-04-22 18:41 | 44.88679 | -63.51375 | 457 ft | 1 kts | 258° |
| 2026-04-22 18:41 | 44.88681 | -63.51364 | 454 ft | 1 kts | 258° |
| 2026-04-22 18:41 | 44.88683 | -63.51348 | 455 ft | 2 kts | 258° |
| 2026-04-22 18:42 | 44.88686 | -63.51330 | 455 ft | 2 kts | 258° |
| 2026-04-22 18:42 | 44.88688 | -63.51313 | 457 ft | 2 kts | 250° |
| 2026-04-22 18:42 | 44.88693 | -63.51297 | 455 ft | 2 kts | 235° |
| 2026-04-22 18:42 | 44.88701 | -63.51282 | 455 ft | 2 kts | 220° |
| 2026-04-22 18:43 | 44.88711 | -63.51272 | 454 ft | 2 kts | 205° |
| 2026-04-22 18:43 | 44.88722 | -63.51267 | 456 ft | 0 kts | 178° |
| 2026-04-22 18:43 | 44.88721 | -63.51267 | 456 ft | 0 kts | 178° |
| 2026-04-22 18:45 | 44.88720 | -63.51267 | 456 ft | 1 kts | 180° |
| 2026-04-22 18:45 | 44.88718 | -63.51267 | 456 ft | 0 kts | 182° |
| 2026-04-22 18:45 | 44.88706 | -63.51266 | 457 ft | 3 kts | 173° |
| 2026-04-22 18:46 | 44.88674 | -63.51259 | 455 ft | 6 kts | 171° |
| 2026-04-22 18:46 | 44.88623 | -63.51247 | 457 ft | 9 kts | 168° |
| 2026-04-22 18:46 | 44.88550 | -63.51228 | 457 ft | 12 kts | 169° |
| 2026-04-22 18:46 | 44.88456 | -63.51206 | 457 ft | 15 kts | 170° |
| 2026-04-22 18:47 | 44.88381 | -63.51143 | 456 ft | 14 kts | 125° |
| 2026-04-22 18:47 | 44.88323 | -63.51019 | 457 ft | 17 kts | 110° |
| 2026-04-22 18:47 | 44.88322 | -63.50852 | 455 ft | 18 kts | 83° |
| 2026-04-22 18:47 | 44.88337 | -63.50667 | 457 ft | 20 kts | 84° |
| 2026-04-22 18:48 | 44.88352 | -63.50463 | 457 ft | 22 kts | 83° |
| 2026-04-22 18:48 | 44.88369 | -63.50243 | 458 ft | 23 kts | 83° |
| 2026-04-22 18:48 | 44.88312 | -63.50045 | 459 ft | 23 kts | 126° |
| 2026-04-22 18:48 | 44.88214 | -63.49852 | 459 ft | 25 kts | 125° |
| 2026-04-22 18:49 | 44.88111 | -63.49643 | 461 ft | 27 kts | 124° |
| 2026-04-22 18:49 | 44.88111 | -63.49404 | 459 ft | 25 kts | 51° |
| 2026-04-22 18:49 | 44.88206 | -63.49404 | 461 ft | 10 kts | 304° |
| 2026-04-22 18:49 | 44.88208 | -63.49409 | 461 ft | 0 kts | 304° |
| 2026-04-22 18:50 | 44.88211 | -63.49416 | 461 ft | 3 kts | 304° |
| 2026-04-22 18:50 | 44.88324 | -63.49641 | 460 ft | 64 kts | 305° |
| 2026-04-22 18:50 | 44.88708 | -63.50415 | 456 ft | 125 kts | 305° |
| 2026-04-22 18:51 | 44.89284 | -63.51559 | 676 ft | 153 kts | 309° |
| 2026-04-22 18:51 | 44.89955 | -63.52858 | 1042 ft | 176 kts | 316° |
| 2026-04-22 18:51 | 44.91047 | -63.53775 | 1825 ft | 198 kts | 344° |
| 2026-04-22 18:51 | 44.92507 | -63.53794 | 2598 ft | 227 kts | 12° |
| 2026-04-22 18:52 | 44.93940 | -63.52650 | 3535 ft | 250 kts | 44° |
| 2026-04-22 18:52 | 44.94864 | -63.50455 | 4396 ft | 275 kts | 69° |
| 2026-04-22 18:52 | 44.95110 | -63.47719 | 5458 ft | 282 kts | 90° |
| 2026-04-22 18:52 | 44.95045 | -63.44987 | 6838 ft | 278 kts | 87° |
| 2026-04-22 18:53 | 44.95187 | -63.42241 | 7831 ft | 283 kts | 78° |
| 2026-04-22 18:53 | 44.95607 | -63.39515 | 8749 ft | 286 kts | 69° |
| 2026-04-22 18:53 | 44.96215 | -63.36825 | 9706 ft | 289 kts | 64° |
| 2026-04-22 18:53 | 44.96919 | -63.34143 | 10569 ft | 296 kts | 63° |
| 2026-04-22 18:54 | 44.97700 | -63.31332 | 10946 ft | 319 kts | 62° |
| 2026-04-22 18:54 | 44.98547 | -63.28314 | 11288 ft | 341 kts | 63° |
| 2026-04-22 18:54 | 44.99416 | -63.25158 | 12038 ft | 348 kts | 63° |
| 2026-04-22 18:54 | 45.00291 | -63.21945 | 12846 ft | 353 kts | 64° |
| 2026-04-22 18:55 | 45.01176 | -63.18674 | 13659 ft | 359 kts | 64° |
| 2026-04-22 18:55 | 45.02073 | -63.15353 | 14419 ft | 364 kts | 64° |
| 2026-04-22 18:55 | 45.02981 | -63.11989 | 15153 ft | 368 kts | 64° |
| 2026-04-22 18:55 | 45.03900 | -63.08586 | 15882 ft | 373 kts | 64° |
| 2026-04-22 18:56 | 45.04830 | -63.05139 | 16601 ft | 378 kts | 64° |
| 2026-04-22 18:56 | 45.05772 | -63.01643 | 17335 ft | 383 kts | 64° |
| 2026-04-22 18:56 | 45.06725 | -62.98104 | 18033 ft | 387 kts | 64° |
| 2026-04-22 18:56 | 45.07745 | -62.94569 | 18705 ft | 388 kts | 58° |
| 2026-04-22 18:57 | 45.09057 | -62.91235 | 19336 ft | 389 kts | 54° |
| 2026-04-22 18:57 | 45.10423 | -62.87917 | 19966 ft | 393 kts | 54° |
| 2026-04-22 18:57 | 45.11801 | -62.84554 | 20626 ft | 396 kts | 55° |
| 2026-04-22 18:57 | 45.13184 | -62.81164 | 21232 ft | 400 kts | 56° |
| 2026-04-22 18:58 | 45.14578 | -62.77740 | 21843 ft | 403 kts | 56° |
| 2026-04-22 18:58 | 45.15984 | -62.74283 | 22439 ft | 407 kts | 56° |
| 2026-04-22 18:58 | 45.17400 | -62.70794 | 23036 ft | 410 kts | 56° |
| 2026-04-22 18:58 | 45.18831 | -62.67267 | 23627 ft | 414 kts | 57° |
| 2026-04-22 18:59 | 45.20271 | -62.63711 | 24132 ft | 418 kts | 57° |
| 2026-04-22 18:59 | 45.21722 | -62.60124 | 24595 ft | 421 kts | 57° |
| 2026-04-22 18:59 | 45.23181 | -62.56510 | 25061 ft | 424 kts | 57° |
| 2026-04-22 18:59 | 45.24656 | -62.52854 | 25492 ft | 429 kts | 58° |
| 2026-04-22 19:00 | 45.26141 | -62.49170 | 25956 ft | 431 kts | 58° |
| 2026-04-22 19:00 | 45.27639 | -62.45447 | 26299 ft | 437 kts | 58° |
| 2026-04-22 19:00 | 45.29128 | -62.41743 | 26755 ft | 439 kts | 58° |
| 2026-04-22 19:00 | 45.30669 | -62.37904 | 27137 ft | 443 kts | 59° |
| 2026-04-22 19:01 | 45.32199 | -62.34084 | 27529 ft | 447 kts | 59° |
| 2026-04-22 19:01 | 45.33719 | -62.30284 | 27972 ft | 449 kts | 59° |
| 2026-04-22 19:01 | 45.35288 | -62.26353 | 28315 ft | 453 kts | 60° |
| 2026-04-22 19:01 | 45.36824 | -62.22503 | 28708 ft | 455 kts | 60° |
| 2026-04-22 19:02 | 45.38412 | -62.18520 | 29083 ft | 458 kts | 60° |
| 2026-04-22 19:02 | 45.39969 | -62.14607 | 29353 ft | 463 kts | 61° |
| 2026-04-22 19:02 | 45.41556 | -62.10613 | 29714 ft | 466 kts | 61° |
| 2026-04-22 19:02 | 45.43154 | -62.06583 | 30074 ft | 468 kts | 61° |
| 2026-04-22 19:03 | 45.44756 | -62.02539 | 30365 ft | 471 kts | 61° |
| 2026-04-22 19:03 | 45.46520 | -61.98589 | 30660 ft | 474 kts | 56° |
| 2026-04-22 19:03 | 45.48385 | -61.94698 | 30929 ft | 477 kts | 56° |
| 2026-04-22 19:03 | 45.50260 | -61.90782 | 31181 ft | 480 kts | 56° |
| 2026-04-22 19:04 | 45.52143 | -61.86847 | 31525 ft | 481 kts | 57° |
| 2026-04-22 19:04 | 45.54024 | -61.82907 | 31909 ft | 480 kts | 57° |
| 2026-04-22 19:04 | 45.55905 | -61.78959 | 32274 ft | 480 kts | 57° |
| 2026-04-22 19:04 | 45.57781 | -61.75018 | 32616 ft | 481 kts | 57° |
| 2026-04-22 19:05 | 45.59654 | -61.71073 | 33056 ft | 478 kts | 57° |
| 2026-04-22 19:05 | 45.61508 | -61.67162 | 33565 ft | 474 kts | 57° |
| 2026-04-22 19:05 | 45.63348 | -61.63276 | 34089 ft | 470 kts | 57° |
| 2026-04-22 19:05 | 45.65168 | -61.59424 | 34534 ft | 465 kts | 58° |
| 2026-04-22 19:06 | 45.66968 | -61.55613 | 34980 ft | 460 kts | 58° |
| 2026-04-22 19:06 | 45.68744 | -61.51847 | 35434 ft | 454 kts | 58° |
| 2026-04-22 19:06 | 45.70493 | -61.48130 | 35903 ft | 447 kts | 58° |
| 2026-04-22 19:07 | 45.73910 | -61.40854 | 36842 ft | 433 kts | 59° |
| 2026-04-22 19:07 | 45.75573 | -61.37305 | 37304 ft | 426 kts | 59° |
| 2026-04-22 19:07 | 45.77216 | -61.33793 | 37518 ft | 425 kts | 59° |
| 2026-04-22 19:08 | 45.80533 | -61.26689 | 37600 ft | 431 kts | 59° |
| 2026-04-22 19:08 | 45.82193 | -61.23131 | 37904 ft | 427 kts | 59° |
| 2026-04-22 19:08 | 45.83840 | -61.19598 | 38103 ft | 427 kts | 59° |
| 2026-04-22 19:09 | 45.86594 | -61.13676 | 38150 ft | 432 kts | 59° |
| 2026-04-22 19:09 | 45.89955 | -61.06430 | 38146 ft | 440 kts | 59° |
| 2026-04-22 19:10 | 45.93377 | -60.99035 | 38133 ft | 449 kts | 59° |
| 2026-04-22 19:10 | 45.96859 | -60.91496 | 38135 ft | 457 kts | 59° |
| 2026-04-22 19:11 | 46.00399 | -60.83809 | 38138 ft | 465 kts | 59° |
| 2026-04-22 19:11 | 46.03999 | -60.75969 | 38131 ft | 474 kts | 59° |
| 2026-04-22 19:12 | 46.07658 | -60.67979 | 38118 ft | 482 kts | 59° |
| 2026-04-22 19:12 | 46.11368 | -60.59856 | 38119 ft | 489 kts | 59° |
| 2026-04-22 19:13 | 46.15115 | -60.51625 | 38114 ft | 494 kts | 59° |
| 2026-04-22 19:13 | 46.18892 | -60.43306 | 38109 ft | 497 kts | 59° |
| 2026-04-22 19:14 | 46.22679 | -60.34940 | 38141 ft | 498 kts | 59° |
| 2026-04-22 19:14 | 46.24530 | -60.30846 | 38608 ft | 488 kts | 59° |
| 2026-04-22 19:14 | 46.26370 | -60.26769 | 38969 ft | 483 kts | 60° |
| 2026-04-22 19:14 | 46.28203 | -60.22698 | 39076 ft | 483 kts | 60° |
| 2026-04-22 19:15 | 46.30038 | -60.18613 | 39103 ft | 485 kts | 60° |
| 2026-04-22 19:15 | 46.33727 | -60.10384 | 39104 ft | 490 kts | 60° |
| 2026-04-22 19:16 | 46.37464 | -60.02031 | 39102 ft | 492 kts | 60° |
| 2026-04-22 19:16 | 46.41188 | -59.93680 | 39108 ft | 494 kts | 60° |
| 2026-04-22 19:17 | 46.44916 | -59.85296 | 39107 ft | 495 kts | 60° |
| 2026-04-22 19:17 | 46.48647 | -59.76879 | 39102 ft | 496 kts | 60° |
| 2026-04-22 19:18 | 46.52352 | -59.68499 | 39101 ft | 497 kts | 60° |
| 2026-04-22 19:18 | 46.56099 | -59.59993 | 39100 ft | 497 kts | 60° |
| 2026-04-22 19:19 | 46.59818 | -59.51528 | 39094 ft | 497 kts | 60° |
| 2026-04-22 19:19 | 46.63509 | -59.43100 | 39068 ft | 497 kts | 61° |
| 2026-04-22 19:20 | 46.67211 | -59.34622 | 39085 ft | 496 kts | 61° |
| 2026-04-22 19:20 | 46.70905 | -59.26135 | 39081 ft | 496 kts | 61° |
| 2026-04-22 19:21 | 46.74593 | -59.17635 | 39073 ft | 496 kts | 61° |
| 2026-04-22 19:21 | 46.78275 | -59.09124 | 39073 ft | 496 kts | 61° |
| 2026-04-22 19:22 | 46.81952 | -59.00598 | 39059 ft | 496 kts | 61° |
| 2026-04-22 19:22 | 46.85620 | -58.92067 | 39059 ft | 496 kts | 62° |
| 2026-04-22 19:23 | 46.89284 | -58.83518 | 39059 ft | 496 kts | 62° |
| 2026-04-22 19:23 | 46.92939 | -58.74966 | 39052 ft | 496 kts | 62° |
| 2026-04-22 19:24 | 46.96584 | -58.66400 | 39048 ft | 495 kts | 63° |
| 2026-04-22 19:24 | 46.99489 | -58.57359 | 39045 ft | 488 kts | 75° |
| 2026-04-22 19:25 | 47.01172 | -58.47822 | 39037 ft | 480 kts | 85° |
| 2026-04-22 19:25 | 47.02242 | -58.38161 | 39032 ft | 481 kts | 85° |
| 2026-04-22 19:26 | 47.03336 | -58.28500 | 39031 ft | 480 kts | 85° |
| 2026-04-22 19:26 | 47.04404 | -58.18847 | 39023 ft | 480 kts | 85° |
| 2026-04-22 19:27 | 47.05458 | -58.09191 | 39023 ft | 480 kts | 85° |
| 2026-04-22 19:27 | 47.06504 | -57.99531 | 39020 ft | 479 kts | 85° |
| 2026-04-22 19:28 | 47.07541 | -57.89873 | 39015 ft | 480 kts | 86° |
| 2026-04-22 19:28 | 47.08570 | -57.80205 | 39010 ft | 480 kts | 86° |
| 2026-04-22 19:29 | 47.09585 | -57.70598 | 39002 ft | 479 kts | 86° |
| 2026-04-22 19:29 | 47.10596 | -57.60936 | 39002 ft | 479 kts | 86° |
| 2026-04-22 19:30 | 47.11438 | -57.52837 | 38995 ft | 479 kts | 86° |
| 2026-04-22 19:30 | 47.12594 | -57.41614 | 38990 ft | 478 kts | 86° |
| 2026-04-22 19:31 | 47.13580 | -57.31959 | 38983 ft | 478 kts | 86° |
| 2026-04-22 19:31 | 47.14557 | -57.22301 | 38977 ft | 478 kts | 86° |
| 2026-04-22 19:32 | 47.15525 | -57.12655 | 38974 ft | 477 kts | 87° |
| 2026-04-22 19:32 | 47.16483 | -57.03016 | 38958 ft | 477 kts | 87° |
| 2026-04-22 19:33 | 47.17434 | -56.93373 | 38955 ft | 477 kts | 87° |
| 2026-04-22 19:33 | 47.18376 | -56.83727 | 38900 ft | 477 kts | 87° |
| 2026-04-22 19:34 | 47.19309 | -56.74092 | 38927 ft | 476 kts | 87° |
| 2026-04-22 19:34 | 47.20228 | -56.64512 | 38926 ft | 476 kts | 87° |
| 2026-04-22 19:35 | 47.21144 | -56.54882 | 38890 ft | 475 kts | 88° |
| 2026-04-22 19:35 | 47.21905 | -56.46813 | 38890 ft | 475 kts | 88° |
| 2026-04-22 19:36 | 47.22949 | -56.35629 | 38857 ft | 475 kts | 88° |
| 2026-04-22 19:36 | 47.23818 | -56.26187 | 38086 ft | 470 kts | 85° |
| 2026-04-22 19:36 | 47.24242 | -56.21492 | 39222 ft | 461 kts | 87° |
| 2026-04-22 19:37 | 47.24678 | -56.16786 | 38973 ft | 469 kts | 88° |
| 2026-04-22 19:37 | 47.25113 | -56.12009 | 38866 ft | 472 kts | 88° |
| 2026-04-22 19:37 | 47.25548 | -56.07219 | 38862 ft | 473 kts | 88° |
| 2026-04-22 19:38 | 47.26412 | -55.97637 | 38862 ft | 472 kts | 88° |
| 2026-04-22 19:38 | 47.27266 | -55.88052 | 38843 ft | 472 kts | 88° |
| 2026-04-22 19:39 | 47.28109 | -55.78524 | 38982 ft | 464 kts | 88° |
| 2026-04-22 19:39 | 47.28931 | -55.69120 | 38815 ft | 460 kts | 89° |
| 2026-04-22 19:39 | 47.29335 | -55.64459 | 38661 ft | 459 kts | 89° |
| 2026-04-22 19:40 | 47.29737 | -55.59776 | 38317 ft | 462 kts | 89° |
| 2026-04-22 19:40 | 47.30140 | -55.55096 | 38038 ft | 454 kts | 89° |
| 2026-04-22 19:40 | 47.30536 | -55.50554 | 37538 ft | 441 kts | 90° |
| 2026-04-22 19:40 | 47.30921 | -55.46092 | 36527 ft | 439 kts | 91° |
| 2026-04-22 19:41 | 47.31299 | -55.41659 | 35736 ft | 432 kts | 92° |
| 2026-04-22 19:41 | 47.31672 | -55.37313 | 35122 ft | 422 kts | 92° |
| 2026-04-22 19:41 | 47.32034 | -55.33075 | 34526 ft | 412 kts | 94° |
| 2026-04-22 19:41 | 47.32385 | -55.28908 | 33943 ft | 408 kts | 94° |
| 2026-04-22 19:42 | 47.32726 | -55.24750 | 33303 ft | 411 kts | 95° |
| 2026-04-22 19:42 | 47.33061 | -55.20609 | 32652 ft | 413 kts | 94° |
| 2026-04-22 19:42 | 47.33403 | -55.16411 | 32005 ft | 413 kts | 94° |
| 2026-04-22 19:42 | 47.33747 | -55.12205 | 31328 ft | 415 kts | 94° |
| 2026-04-22 19:43 | 47.34435 | -55.03733 | 30110 ft | 415 kts | 94° |
| 2026-04-22 19:43 | 47.34779 | -54.99538 | 29449 ft | 409 kts | 94° |
| 2026-04-22 19:43 | 47.35116 | -54.95404 | 28750 ft | 403 kts | 94° |
| 2026-04-22 19:44 | 47.35444 | -54.91315 | 27967 ft | 399 kts | 94° |
| 2026-04-22 19:44 | 47.35765 | -54.87278 | 27141 ft | 394 kts | 94° |
| 2026-04-22 19:44 | 47.36079 | -54.83286 | 26477 ft | 389 kts | 94° |
| 2026-04-22 19:44 | 47.36387 | -54.79346 | 25934 ft | 386 kts | 94° |
| 2026-04-22 19:45 | 47.36691 | -54.75424 | 25422 ft | 384 kts | 94° |
| 2026-04-22 19:45 | 47.36993 | -54.71545 | 24931 ft | 378 kts | 94° |
| 2026-04-22 19:45 | 47.37292 | -54.67711 | 24437 ft | 373 kts | 94° |
| 2026-04-22 19:45 | 47.37585 | -54.63938 | 23949 ft | 368 kts | 94° |
| 2026-04-22 19:46 | 47.37873 | -54.60209 | 23472 ft | 363 kts | 94° |
| 2026-04-22 19:46 | 47.38155 | -54.56530 | 22876 ft | 359 kts | 94° |
| 2026-04-22 19:46 | 47.38432 | -54.52892 | 22296 ft | 355 kts | 94° |
| 2026-04-22 19:46 | 47.38706 | -54.49293 | 21745 ft | 351 kts | 94° |
| 2026-04-22 19:47 | 47.38976 | -54.45730 | 21223 ft | 348 kts | 94° |
| 2026-04-22 19:47 | 47.39243 | -54.42205 | 20718 ft | 344 kts | 94° |
| 2026-04-22 19:47 | 47.39421 | -54.39840 | 20378 ft | 342 kts | 94° |
| 2026-04-22 19:47 | 47.39765 | -54.35253 | 19731 ft | 338 kts | 94° |
| 2026-04-22 19:48 | 47.40021 | -54.31819 | 19250 ft | 335 kts | 94° |
| 2026-04-22 19:48 | 47.40274 | -54.28409 | 18742 ft | 333 kts | 94° |
| 2026-04-22 19:48 | 47.40523 | -54.25012 | 18270 ft | 332 kts | 94° |
| 2026-04-22 19:48 | 47.40773 | -54.21631 | 17765 ft | 331 kts | 93° |
| 2026-04-22 19:49 | 47.41022 | -54.18265 | 17229 ft | 329 kts | 93° |
| 2026-04-22 19:49 | 47.41269 | -54.14916 | 16713 ft | 327 kts | 93° |
| 2026-04-22 19:49 | 47.41526 | -54.11583 | 16180 ft | 328 kts | 90° |
| 2026-04-22 19:49 | 47.42047 | -54.08277 | 15659 ft | 332 kts | 84° |
| 2026-04-22 19:50 | 47.42657 | -54.05002 | 15175 ft | 330 kts | 84° |
| 2026-04-22 19:50 | 47.43274 | -54.01734 | 14689 ft | 329 kts | 84° |
| 2026-04-22 19:50 | 47.43882 | -53.98481 | 14212 ft | 328 kts | 84° |
| 2026-04-22 19:50 | 47.44483 | -53.95230 | 13740 ft | 328 kts | 84° |
| 2026-04-22 19:51 | 47.45081 | -53.91975 | 13225 ft | 328 kts | 84° |
| 2026-04-22 19:51 | 47.45674 | -53.88727 | 12694 ft | 327 kts | 84° |
| 2026-04-22 19:51 | 47.46262 | -53.85496 | 12182 ft | 325 kts | 84° |
| 2026-04-22 19:51 | 47.46848 | -53.82273 | 11655 ft | 324 kts | 84° |
| 2026-04-22 19:52 | 47.47431 | -53.79072 | 11158 ft | 321 kts | 84° |
| 2026-04-22 19:52 | 47.48008 | -53.75887 | 10666 ft | 320 kts | 84° |
| 2026-04-22 19:52 | 47.48581 | -53.72722 | 10183 ft | 318 kts | 84° |
| 2026-04-22 19:52 | 47.49150 | -53.69563 | 9702 ft | 317 kts | 84° |
| 2026-04-22 19:53 | 47.49715 | -53.66422 | 9173 ft | 315 kts | 84° |
| 2026-04-22 19:53 | 47.50276 | -53.63294 | 8655 ft | 314 kts | 84° |
| 2026-04-22 19:53 | 47.50646 | -53.61229 | 8317 ft | 313 kts | 84° |
| 2026-04-22 19:53 | 47.51389 | -53.57076 | 7641 ft | 312 kts | 83° |
| 2026-04-22 19:54 | 47.51941 | -53.53996 | 7250 ft | 307 kts | 83° |
| 2026-04-22 19:54 | 47.52485 | -53.50967 | 6873 ft | 302 kts | 83° |
| 2026-04-22 19:54 | 47.53017 | -53.47989 | 6517 ft | 297 kts | 83° |
| 2026-04-22 19:54 | 47.53540 | -53.45049 | 6150 ft | 294 kts | 83° |
| 2026-04-22 19:55 | 47.54049 | -53.42180 | 5769 ft | 291 kts | 82° |
| 2026-04-22 19:55 | 47.54557 | -53.39304 | 5390 ft | 287 kts | 82° |
| 2026-04-22 19:55 | 47.55058 | -53.36457 | 5008 ft | 284 kts | 82° |
| 2026-04-22 19:55 | 47.55554 | -53.33644 | 4632 ft | 281 kts | 81° |
| 2026-04-22 19:56 | 47.56048 | -53.30866 | 4230 ft | 277 kts | 83° |
| 2026-04-22 19:56 | 47.56536 | -53.28122 | 3835 ft | 274 kts | 82° |
| 2026-04-22 19:56 | 47.57013 | -53.25408 | 3437 ft | 271 kts | 83° |
| 2026-04-22 19:56 | 47.57485 | -53.22728 | 3147 ft | 265 kts | 82° |
| 2026-04-22 19:57 | 47.57939 | -53.20160 | 3064 ft | 248 kts | 82° |
| 2026-04-22 19:57 | 47.58228 | -53.18550 | 3063 ft | 231 kts | 83° |
| 2026-04-22 19:57 | 47.58616 | -53.16396 | 3059 ft | 208 kts | 83° |
| 2026-04-22 19:57 | 47.59079 | -53.13781 | 3082 ft | 195 kts | 85° |
| 2026-04-22 19:58 | 47.59301 | -53.12472 | 3064 ft | 193 kts | 85° |
| 2026-04-22 19:58 | 47.59622 | -53.10577 | 3064 ft | 192 kts | 85° |
| 2026-04-22 19:58 | 47.59949 | -53.08657 | 3063 ft | 193 kts | 85° |
| 2026-04-22 19:58 | 47.60280 | -53.06737 | 3060 ft | 192 kts | 85° |
| 2026-04-22 19:59 | 47.60613 | -53.04812 | 3059 ft | 193 kts | 84° |
| 2026-04-22 20:00 | 47.61496 | -52.95576 | 3008 ft | 140 kts | 97° |
| 2026-04-22 20:00 | 47.61561 | -52.94127 | 2850 ft | 140 kts | 96° |
| 2026-04-22 20:01 | 47.61632 | -52.92687 | 2640 ft | 141 kts | 95° |
| 2026-04-22 20:01 | 47.61700 | -52.91240 | 2455 ft | 141 kts | 92° |
| 2026-04-22 20:01 | 47.61769 | -52.89791 | 2261 ft | 140 kts | 91° |
| 2026-04-22 20:01 | 47.61837 | -52.88347 | 2062 ft | 141 kts | 90° |
| 2026-04-22 20:02 | 47.61905 | -52.86916 | 1860 ft | 136 kts | 89° |
| 2026-04-22 20:02 | 47.61971 | -52.85504 | 1675 ft | 140 kts | 86° |
| 2026-04-22 20:02 | 47.62039 | -52.84051 | 1471 ft | 140 kts | 84° |
| 2026-04-22 20:02 | 47.62107 | -52.82622 | 1262 ft | 139 kts | 84° |
| 2026-04-22 20:03 | 47.62171 | -52.81222 | 1053 ft | 132 kts | 83° |
| 2026-04-22 20:03 | 47.62236 | -52.79867 | 875 ft | 133 kts | 82° |
| 2026-04-22 20:03 | 47.62302 | -52.78544 | 689 ft | 128 kts | 82° |
| 2026-04-22 20:03 | 47.62365 | -52.77195 | 523 ft | 130 kts | 83° |
| 2026-04-22 20:04 | 47.62422 | -52.75982 | 482 ft | 99 kts | 77° |
| 2026-04-22 20:04 | 47.62455 | -52.75268 | 485 ft | 41 kts | 89° |
| 2026-04-22 20:04 | 47.62461 | -52.75115 | 479 ft | 1 kts | 86° |
| 2026-04-22 20:04 | 47.62457 | -52.75022 | 480 ft | 13 kts | 116° |
| 2026-04-22 20:05 | 47.62383 | -52.74923 | 485 ft | 17 kts | 138° |